Terminal Aerodrome Forecast
Issued by NWS Grand Forks, ND

Home | Current Version | Previous Version | Graphics & Text | Print | Product List | Glossary On
Versions: 1 2 3 4 5 6 7 8 9 10 11 12 13 14 15 16 17 18 19 20 21 22
000
FTUS43 KFGF 230412 AAB
TAFFAR
TAF AMD
KFAR 230412Z 2304/2324 36014G24KT P6SM BKN060
      TEMPO 2304/2306 -RASN SCT025 BKN040
     FM230600 03014KT P6SM BKN020
      TEMPO 2306/2310 5SM -SN BKN015
     FM231600 06012KT P6SM BKN020=

USA.gov is the U.S. government's official web portal to all federal, state and local government web resources and services.